Okmulgee, Oklahoma
Current Conditions -  °F | °C
As of 2:15 AM on Monday 26 Jan 2015 (Local Time) from KOKM Reporting Station
Clear Clear  
Wind Chill: 26°   Ceiling: Unl
Heat Index: 33°   Visibility: 10mi
Dew Point: 29°   Wind: 8mph
Humidity: 87%   Direction: 270°W
Pressure: 30.18"   Gusts: NA
Location:  35.62°N, 95.97°W
Report Text: KOKM 260815Z AUTO 27007KT 10SM CLR 01/M01 A3018 RMK AO2 T00051015
Loading
Personal Weather Stations






























Interactive Weather Map New forecast layout! Learn more

10-Day Weather Forecast

Advertisements
Track Severe Weather on mobile